createdAt,value
2022-11-10T00:00:25.493Z,2.00
2022-11-10T00:03:13.754Z,1.73
2022-11-10T00:06:27.412Z,1.97
2022-11-10T00:09:14.945Z,1.50
2022-11-10T00:12:03.732Z,1.60
2022-11-10T00:15:08.550Z,1.70
2022-11-10T00:17:56.245Z,1.50
2022-11-10T00:20:43.474Z,1.50
2022-11-10T00:23:30.977Z,1.57
2022-11-10T00:26:22.173Z,1.50
2022-11-10T00:29:13.865Z,1.50
2022-11-10T00:32:01.199Z,1.37
2022-11-10T00:34:48.256Z,1.30
2022-11-10T00:37:35.958Z,1.50
2022-11-10T00:40:23.406Z,1.40
2022-11-10T00:43:11.018Z,1.60
2022-11-10T00:45:59.773Z,1.17
2022-11-10T00:48:47.117Z,1.53
2022-11-10T00:51:34.354Z,1.50
2022-11-10T00:54:22.095Z,1.67
2022-11-10T00:57:09.661Z,1.30
2022-11-10T00:59:56.717Z,1.20
2022-11-10T01:02:45.805Z,1.47
2022-11-10T01:05:37.430Z,1.40
2022-11-10T01:08:24.947Z,1.10
2022-11-10T01:11:16.571Z,1.50
2022-11-10T01:14:03.792Z,1.30
2022-11-10T01:16:50.971Z,1.37
2022-11-10T01:19:39.328Z,1.40
2022-11-10T01:22:26.525Z,1.30
2022-11-10T01:25:14.031Z,1.20
2022-11-10T01:28:01.079Z,1.10
2022-11-10T01:30:48.068Z,1.30
2022-11-10T01:33:36.533Z,1.30
2022-11-10T01:36:25.541Z,1.30
2022-11-10T01:39:12.910Z,1.27
2022-11-10T01:41:59.946Z,1.40
2022-11-10T01:45:42.713Z,1.20
2022-11-10T01:48:36.687Z,1.20
2022-11-10T01:51:31.126Z,1.20
2022-11-10T01:54:26.482Z,1.10
2022-11-10T01:57:16.520Z,1.17
2022-11-10T02:00:05.365Z,1.60
2022-11-10T02:03:02.685Z,1.20
2022-11-10T02:05:52.143Z,1.20
2022-11-10T02:08:42.342Z,1.13
2022-11-10T02:11:30.581Z,1.40
2022-11-10T02:14:18.128Z,1.60
2022-11-10T02:17:05.431Z,1.13
2022-11-10T02:19:53.706Z,1.30
2022-11-10T02:22:42.580Z,1.13
2022-11-10T02:25:34.332Z,1.30
2022-11-10T02:28:22.900Z,1.03
2022-11-10T02:31:10.521Z,1.20
2022-11-10T02:33:57.570Z,1.33
2022-11-10T02:36:44.948Z,1.50
2022-11-10T02:39:33.798Z,1.40
2022-11-10T02:42:21.143Z,1.30
2022-11-10T02:45:09.525Z,1.20
2022-11-10T02:47:56.509Z,1.10
2022-11-10T02:50:43.771Z,1.10
2022-11-10T02:53:31.279Z,1.13
2022-11-10T02:56:19.663Z,1.13
2022-11-10T02:59:06.707Z,1.60
2022-11-10T03:01:53.655Z,1.30
2022-11-10T03:04:41.058Z,1.47
2022-11-10T03:07:28.365Z,1.40
2022-11-10T03:10:15.494Z,1.30
2022-11-10T03:13:04.538Z,1.20
2022-11-10T03:15:52.415Z,1.37
2022-11-10T03:18:39.703Z,1.27
2022-11-10T03:21:26.649Z,1.20
2022-11-10T03:24:14.104Z,1.40
2022-11-10T03:27:01.283Z,1.10
2022-11-10T03:29:49.651Z,1.43
2022-11-10T03:32:36.903Z,1.30
2022-11-10T03:35:24.143Z,1.40
2022-11-10T03:38:11.342Z,1.50
2022-11-10T03:44:06.239Z,1.50
2022-11-10T03:46:55.138Z,1.50
2022-11-10T03:49:42.807Z,1.57
2022-11-10T03:52:31.534Z,1.30
2022-11-10T03:55:28.086Z,1.50
2022-11-10T03:58:15.698Z,1.43
2022-11-10T04:01:03.190Z,1.37
2022-11-10T04:03:53.234Z,1.60
2022-11-10T04:06:58.314Z,1.70
2022-11-10T04:09:45.980Z,1.63
2022-11-10T04:12:50.833Z,1.77
2022-11-10T04:15:43.668Z,2.17
2022-11-10T04:18:31.372Z,1.50
2022-11-10T04:21:21.397Z,2.00
2022-11-10T04:24:10.028Z,1.57
2022-11-10T04:26:59.299Z,1.60
2022-11-10T04:29:46.718Z,1.50
2022-11-10T04:32:33.983Z,1.60
2022-11-10T04:35:21.409Z,1.60
2022-11-10T04:38:11.901Z,1.57
2022-11-10T04:40:59.725Z,1.40
2022-11-10T04:43:48.064Z,1.57
2022-11-10T04:46:38.213Z,1.40
2022-11-10T04:49:26.747Z,1.60
2022-11-10T04:52:15.196Z,1.47
2022-11-10T04:55:05.462Z,1.60
2022-11-10T04:57:53.172Z,1.53
2022-11-10T05:00:42.009Z,1.60
2022-11-10T05:03:29.613Z,1.53
2022-11-10T05:06:17.063Z,1.80
2022-11-10T05:09:05.634Z,1.90
2022-11-10T05:11:54.120Z,1.60
2022-11-10T05:14:41.760Z,1.80
2022-11-10T05:17:29.096Z,2.07
2022-11-10T05:20:16.974Z,1.90
2022-11-10T05:23:24.532Z,1.57
2022-11-10T05:26:15.353Z,1.87
2022-11-10T05:29:04.069Z,1.70
2022-11-10T05:31:51.797Z,1.73
2022-11-10T05:34:40.625Z,1.50
2022-11-10T05:37:30.457Z,2.33
2022-11-10T05:40:19.095Z,3.10
2022-11-10T05:43:07.390Z,3.00
2022-11-10T05:45:56.499Z,3.57
2022-11-10T05:48:44.550Z,3.40
2022-11-10T05:51:33.003Z,4.73
2022-11-10T05:54:20.363Z,5.73
2022-11-10T05:57:07.926Z,5.97
2022-11-10T05:59:55.478Z,5.73
2022-11-10T06:02:44.068Z,7.30
2022-11-10T06:05:34.134Z,6.90
2022-11-10T06:08:21.261Z,5.77
2022-11-10T06:11:08.258Z,4.63
2022-11-10T06:13:55.442Z,3.40
2022-11-10T06:16:42.996Z,3.90
2022-11-10T06:19:31.998Z,3.50
2022-11-10T06:22:19.550Z,4.00
2022-11-10T06:25:08.197Z,3.73
2022-11-10T06:27:55.634Z,4.40
2022-11-10T06:30:43.020Z,3.97
2022-11-10T06:33:31.526Z,3.77
2022-11-10T06:36:19.922Z,5.07
2022-11-10T06:39:07.087Z,6.13
2022-11-10T06:41:54.292Z,4.60
2022-11-10T06:44:41.394Z,5.43
2022-11-10T06:47:29.783Z,5.80
2022-11-10T06:50:17.145Z,4.97
2022-11-10T06:53:06.403Z,4.60
2022-11-10T06:55:53.955Z,5.13
2022-11-10T06:58:41.270Z,5.63
2022-11-10T07:01:28.723Z,4.70
2022-11-10T07:04:20.729Z,4.73
2022-11-10T07:07:08.672Z,4.43
2022-11-10T07:09:57.361Z,4.37
2022-11-10T07:12:44.927Z,4.03
2022-11-10T07:15:33.675Z,4.20
2022-11-10T07:18:21.124Z,4.23
2022-11-10T07:21:08.608Z,4.97
2022-11-10T07:23:56.018Z,4.40
2022-11-10T07:26:44.530Z,4.33
2022-11-10T07:29:32.211Z,5.00
2022-11-10T07:32:19.788Z,4.47
2022-11-10T07:35:07.284Z,4.47
2022-11-10T07:37:54.951Z,4.40
2022-11-10T07:40:42.305Z,5.00
2022-11-10T07:43:30.919Z,4.83
2022-11-10T07:46:18.276Z,3.73
2022-11-10T07:49:05.325Z,4.70
2022-11-10T07:51:52.441Z,4.60
2022-11-10T07:54:39.426Z,4.60
2022-11-10T07:57:26.633Z,2.97
2022-11-10T08:00:18.387Z,3.47
2022-11-10T08:03:08.099Z,2.80
2022-11-10T08:05:55.432Z,2.47
2022-11-10T08:08:42.833Z,2.27
2022-11-10T08:11:30.206Z,2.40
2022-11-10T08:14:17.806Z,2.40
2022-11-10T08:17:06.216Z,1.97
2022-11-10T08:19:53.469Z,1.83
2022-11-10T08:22:40.872Z,1.90
2022-11-10T08:25:34.180Z,2.10
2022-11-10T08:28:22.678Z,1.70
2022-11-10T08:31:09.988Z,1.77
2022-11-10T08:33:58.662Z,2.07
2022-11-10T08:36:46.155Z,1.90
2022-11-10T08:39:40.295Z,1.80
2022-11-10T08:42:27.858Z,1.70
2022-11-10T08:45:16.753Z,1.80
2022-11-10T08:48:06.450Z,1.77
2022-11-10T08:50:55.204Z,2.00
2022-11-10T08:53:42.449Z,2.13
2022-11-10T08:56:29.839Z,1.70
2022-11-10T08:59:18.404Z,2.23
2022-11-10T09:02:05.930Z,2.00
2022-11-10T09:04:53.612Z,1.80
2022-11-10T09:07:51.205Z,1.90
2022-11-10T09:10:42.402Z,2.00
2022-11-10T09:13:30.603Z,1.77
2022-11-10T09:16:19.075Z,1.93
2022-11-10T09:19:06.742Z,2.00
2022-11-10T09:21:54.399Z,1.80
2022-11-10T09:24:42.854Z,1.63
2022-11-10T09:27:29.869Z,1.80
2022-11-10T09:30:18.409Z,2.30
2022-11-10T09:33:05.834Z,1.90
2022-11-10T09:35:57.503Z,2.10
2022-11-10T09:38:45.063Z,2.20
2022-11-10T09:41:34.706Z,2.10
2022-11-10T09:44:28.375Z,1.90
2022-11-10T09:47:50.764Z,2.03
2022-11-10T09:50:48.193Z,1.93
2022-11-10T09:53:42.828Z,1.90
2022-11-10T09:56:36.350Z,2.00
2022-11-10T09:59:29.510Z,5.80
2022-11-10T10:02:30.819Z,2.30
2022-11-10T10:05:52.726Z,2.10
2022-11-10T10:08:58.683Z,2.30
2022-11-10T10:11:57.873Z,1.90
2022-11-10T10:15:14.179Z,2.20
2022-11-10T10:18:24.759Z,2.10
2022-11-10T10:21:32.119Z,2.43
2022-11-10T10:24:27.659Z,1.80
2022-11-10T10:27:24.231Z,2.23
2022-11-10T10:30:17.844Z,1.80
2022-11-10T10:33:17.596Z,1.70
2022-11-10T10:36:13.566Z,1.93
2022-11-10T10:39:08.203Z,1.90
2022-11-10T10:41:55.665Z,1.80
2022-11-10T10:45:15.003Z,2.07
2022-11-10T10:48:02.687Z,2.10
2022-11-10T10:50:50.529Z,1.90
2022-11-10T10:53:48.250Z,2.07
2022-11-10T10:56:36.200Z,1.83
2022-11-10T10:59:25.140Z,1.80
2022-11-10T11:02:28.257Z,1.77
2022-11-10T11:05:19.162Z,1.83
2022-11-10T11:08:07.146Z,1.70
2022-11-10T11:10:54.496Z,1.50
2022-11-10T11:13:41.620Z,1.80
2022-11-10T11:16:28.460Z,2.17
2022-11-10T11:19:17.777Z,1.90
2022-11-10T11:22:51.510Z,1.90
2022-11-10T11:25:45.207Z,1.90
2022-11-10T11:28:46.240Z,1.93
2022-11-10T11:31:48.084Z,1.87
2022-11-10T11:34:48.714Z,2.10
2022-11-10T11:37:49.367Z,1.63
2022-11-10T11:40:49.445Z,1.63
2022-11-10T11:44:19.234Z,1.80
2022-11-10T11:47:32.821Z,1.90
2022-11-10T11:50:33.468Z,1.50
2022-11-10T11:53:45.248Z,1.60
2022-11-10T11:56:39.260Z,1.90
2022-11-10T11:59:58.292Z,1.50
2022-11-10T12:03:21.889Z,1.63
2022-11-10T12:06:29.128Z,1.80
2022-11-10T12:18:12.997Z,2.07
2022-11-10T12:21:16.943Z,3.63
2022-11-10T12:24:33.033Z,1.50
2022-11-10T12:27:27.036Z,1.93
2022-11-10T12:30:18.023Z,2.00
2022-11-10T12:33:17.006Z,1.60
2022-11-10T12:36:09.550Z,1.47
2022-11-10T12:39:04.402Z,1.80
2022-11-10T12:41:59.992Z,1.80
2022-11-10T12:45:03.095Z,1.40
2022-11-10T12:47:51.144Z,1.83
2022-11-10T12:50:54.830Z,1.40
2022-11-10T12:53:44.733Z,1.93
2022-11-10T12:56:40.740Z,1.70
2022-11-10T12:59:35.315Z,1.60
2022-11-10T13:02:33.082Z,1.60
2022-11-10T13:05:38.400Z,1.60
2022-11-10T13:08:33.495Z,1.70
2022-11-10T13:11:34.372Z,1.77
2022-11-10T13:14:26.351Z,1.90
2022-11-10T13:17:55.675Z,1.70
2022-11-10T13:20:55.885Z,1.60
2022-11-10T13:24:25.732Z,1.90
2022-11-10T13:27:15.245Z,1.53
2022-11-10T13:30:02.930Z,1.60
2022-11-10T13:32:50.265Z,1.40
2022-11-10T13:35:55.824Z,1.37
2022-11-10T13:38:46.059Z,2.10
2022-11-10T13:41:35.968Z,2.20
2022-11-10T13:44:27.541Z,1.80
2022-11-10T13:47:54.790Z,1.60
2022-11-10T13:51:02.678Z,2.00
2022-11-10T13:54:14.285Z,1.73
2022-11-10T13:57:28.729Z,1.83
2022-11-10T14:00:30.316Z,2.10
2022-11-10T14:03:57.612Z,1.70
2022-11-10T14:06:51.425Z,1.70
2022-11-10T14:09:41.892Z,1.70
2022-11-10T14:12:40.861Z,1.50
2022-11-10T14:15:43.650Z,1.53
2022-11-10T14:18:42.916Z,1.77
2022-11-10T14:21:39.992Z,1.90
2022-11-10T14:24:32.680Z,2.50
2022-11-10T14:27:27.601Z,1.77
2022-11-10T14:30:26.659Z,1.77
2022-11-10T14:33:16.332Z,2.60
2022-11-10T14:36:09.015Z,5.30
2022-11-10T14:38:58.211Z,1.80
2022-11-10T14:41:51.250Z,10.70
2022-11-10T14:44:39.088Z,2.87
2022-11-10T14:47:31.351Z,2.63
2022-11-10T14:50:23.018Z,2.50
2022-11-10T14:53:25.092Z,1.70
2022-11-10T14:56:20.854Z,7.53
2022-11-10T14:59:14.265Z,6.13
2022-11-10T15:02:03.482Z,2.87
2022-11-10T15:04:53.771Z,2.90
2022-11-10T15:07:42.694Z,4.07
2022-11-10T15:10:45.570Z,3.30
2022-11-10T15:13:39.814Z,2.03
2022-11-10T15:16:29.589Z,2.53
2022-11-10T15:19:31.753Z,2.90
2022-11-10T15:22:30.760Z,4.30
2022-11-10T15:25:23.369Z,3.73
2022-11-10T15:28:30.755Z,2.80
2022-11-10T15:31:26.553Z,3.20
2022-11-10T15:34:41.563Z,2.90
2022-11-10T15:37:34.564Z,2.00
2022-11-10T15:40:37.496Z,2.17
2022-11-10T15:43:29.251Z,2.53
2022-11-10T15:46:20.919Z,3.00
2022-11-10T15:49:14.482Z,3.10
2022-11-10T15:52:05.283Z,2.80
2022-11-10T15:54:54.111Z,4.40
2022-11-10T15:57:41.718Z,2.90
2022-11-10T16:00:29.164Z,3.70
2022-11-10T16:03:20.949Z,3.23
2022-11-10T16:06:11.095Z,2.57
2022-11-10T16:08:58.569Z,3.00
2022-11-10T16:11:47.728Z,2.83
2022-11-10T16:14:35.015Z,3.30
2022-11-10T16:17:22.834Z,4.57
2022-11-10T16:20:16.105Z,5.37
2022-11-10T16:23:03.561Z,8.10
2022-11-10T16:25:55.307Z,10.90
2022-11-10T16:28:47.785Z,14.20
2022-11-10T16:31:35.549Z,8.60
2022-11-10T16:34:23.166Z,9.93
2022-11-10T16:37:14.278Z,6.77
2022-11-10T16:40:01.516Z,8.50
2022-11-10T16:42:49.859Z,9.10
2022-11-10T16:45:39.216Z,8.60
2022-11-10T16:48:32.053Z,8.50
2022-11-10T16:51:19.490Z,6.53
2022-11-10T16:54:06.528Z,6.67
2022-11-10T16:56:53.544Z,6.10
2022-11-10T16:59:40.585Z,6.27
2022-11-10T17:02:35.726Z,6.20
2022-11-10T17:05:23.031Z,4.90
2022-11-10T17:08:22.640Z,5.40
2022-11-10T17:11:11.226Z,4.63
2022-11-10T17:13:58.350Z,4.13
2022-11-10T17:16:48.240Z,4.77
2022-11-10T17:19:37.126Z,5.57
2022-11-10T17:22:26.984Z,4.70
2022-11-10T17:25:27.009Z,4.70
2022-11-10T17:28:16.153Z,4.60
2022-11-10T17:31:04.525Z,4.30
2022-11-10T17:33:52.229Z,3.70
2022-11-10T17:36:41.956Z,3.70
2022-11-10T17:39:30.123Z,4.50
2022-11-10T17:42:17.878Z,4.33
2022-11-10T17:45:07.329Z,4.10
2022-11-10T17:47:55.806Z,4.73
2022-11-10T17:50:48.410Z,4.87
2022-11-10T17:53:37.287Z,4.20
2022-11-10T17:56:24.682Z,4.30
2022-11-10T17:59:12.103Z,4.13
2022-11-10T18:02:01.138Z,10.07
2022-11-10T18:05:14.313Z,8.50
2022-11-10T18:08:01.456Z,7.13
2022-11-10T18:10:53.094Z,7.20
2022-11-10T18:13:42.103Z,6.57
2022-11-10T18:16:29.397Z,4.80
2022-11-10T18:19:16.390Z,5.03
2022-11-10T18:22:03.811Z,5.03
2022-11-10T18:25:11.463Z,5.03
2022-11-10T18:28:09.001Z,5.47
2022-11-10T18:31:08.511Z,5.00
2022-11-10T18:33:59.143Z,5.00
2022-11-10T18:36:47.158Z,5.30
2022-11-10T18:39:34.526Z,4.63
2022-11-10T18:42:21.697Z,4.87
2022-11-10T18:45:13.002Z,4.97
2022-11-10T18:48:04.013Z,5.10
2022-11-10T18:50:56.971Z,5.00
2022-11-10T18:53:46.639Z,4.93
2022-11-10T18:56:35.783Z,4.77
2022-11-10T18:59:24.171Z,4.80
2022-11-10T19:02:15.425Z,5.50
2022-11-10T19:05:03.509Z,4.73
2022-11-10T19:07:51.002Z,4.97
2022-11-10T19:10:47.340Z,5.07
2022-11-10T19:13:37.510Z,6.50
2022-11-10T19:16:24.998Z,5.60
2022-11-10T19:19:13.823Z,7.63
2022-11-10T19:22:08.639Z,5.37
2022-11-10T19:25:11.294Z,11.10
2022-11-10T19:27:59.345Z,14.93
2022-11-10T19:30:46.948Z,7.60
2022-11-10T19:33:46.323Z,8.83
2022-11-10T19:37:00.703Z,8.13
2022-11-10T19:39:55.277Z,11.67
2022-11-10T19:42:42.405Z,7.80
2022-11-10T19:45:37.109Z,8.07
2022-11-10T19:48:24.394Z,6.30
2022-11-10T19:51:13.998Z,6.27
2022-11-10T19:54:05.195Z,6.27
2022-11-10T19:56:52.704Z,6.20
2022-11-10T19:59:41.292Z,4.77
2022-11-10T20:02:28.882Z,4.77
2022-11-10T20:05:21.143Z,4.57
2022-11-10T20:08:22.677Z,4.90
2022-11-10T20:12:12.681Z,4.17
2022-11-10T20:15:05.606Z,4.53
2022-11-10T20:17:53.391Z,4.30
2022-11-10T20:20:46.875Z,4.50
2022-11-10T20:23:36.823Z,4.30
2022-11-10T20:26:26.224Z,4.10
2022-11-10T20:29:14.966Z,4.37
2022-11-10T20:32:02.436Z,4.77
2022-11-10T20:34:50.792Z,3.83
2022-11-10T20:37:38.363Z,4.60
2022-11-10T20:40:43.602Z,3.80
2022-11-10T20:43:36.243Z,3.30
2022-11-10T20:46:52.919Z,3.33
2022-11-10T20:49:32.660Z,3.90
2022-11-10T20:52:20.160Z,3.40
2022-11-10T20:55:08.291Z,3.47
2022-11-10T20:57:57.033Z,3.50
2022-11-10T21:00:46.232Z,3.13
2022-11-10T21:03:37.104Z,3.10
2022-11-10T21:06:24.371Z,3.20
2022-11-10T21:09:13.535Z,3.00
2022-11-10T21:12:32.594Z,3.30
2022-11-10T21:15:21.698Z,3.30
2022-11-10T21:18:08.866Z,4.40
2022-11-10T21:20:57.630Z,5.00
2022-11-10T21:23:45.232Z,4.67
2022-11-10T21:26:34.274Z,4.73
2022-11-10T21:29:21.844Z,4.13
2022-11-10T21:32:09.066Z,3.53
2022-11-10T21:34:56.257Z,3.20
2022-11-10T21:37:45.099Z,3.17
2022-11-10T21:40:32.721Z,3.47
2022-11-10T21:43:20.225Z,3.23
2022-11-10T21:46:07.849Z,3.30
2022-11-10T21:48:55.025Z,3.83
2022-11-10T21:51:42.606Z,3.37
2022-11-10T21:54:31.394Z,3.13
2022-11-10T21:57:18.705Z,3.30
2022-11-10T22:00:07.413Z,4.03
2022-11-10T22:02:59.644Z,3.80
2022-11-10T22:05:47.248Z,3.80
2022-11-10T22:08:34.852Z,3.00
2022-11-10T22:11:40.836Z,3.13
2022-11-10T22:14:45.046Z,3.50
2022-11-10T22:17:50.013Z,4.93
2022-11-10T22:20:37.027Z,3.50
2022-11-10T22:23:44.512Z,3.30
2022-11-10T22:26:33.182Z,3.60
2022-11-10T22:29:20.803Z,4.20
2022-11-10T22:32:07.661Z,3.07
2022-11-10T22:34:54.712Z,3.20
2022-11-10T22:37:42.123Z,2.80
2022-11-10T22:40:46.575Z,2.90
2022-11-10T22:43:52.345Z,2.70
2022-11-10T22:46:41.476Z,3.00
2022-11-10T22:49:28.691Z,2.70
2022-11-10T22:52:16.474Z,3.00
2022-11-10T22:55:03.467Z,2.40
2022-11-10T22:57:55.770Z,3.13
2022-11-10T23:00:47.217Z,2.83
2022-11-10T23:03:35.335Z,3.13
2022-11-10T23:06:24.037Z,2.93
2022-11-10T23:09:11.603Z,2.80
2022-11-10T23:11:59.343Z,3.13
2022-11-10T23:14:47.825Z,2.47
2022-11-10T23:17:36.626Z,2.73
2022-11-10T23:20:24.236Z,2.87
2022-11-10T23:23:11.396Z,2.40
2022-11-10T23:26:00.781Z,2.67
2022-11-10T23:28:48.351Z,2.67
2022-11-10T23:31:35.337Z,2.70
2022-11-10T23:34:24.239Z,3.00
2022-11-10T23:37:11.404Z,2.50
2022-11-10T23:39:58.955Z,2.57
2022-11-10T23:42:47.039Z,2.90
2022-11-10T23:46:04.804Z,2.83
2022-11-10T23:48:42.592Z,2.90
2022-11-10T23:51:31.387Z,2.77
2022-11-10T23:54:19.723Z,2.60
2022-11-10T23:57:06.967Z,2.90
2022-11-10T23:59:54.041Z,2.40
